sensor_id;sensor_type;location;lat;lon;timestamp;pressure;altitude;pressure_sealevel;temperature;humidity
16100;BME280;8154;50.830;12.082;2023-05-10T00:01:39;98787.78;;;25.16;31.53
16100;BME280;8154;50.830;12.082;2023-05-10T00:04:06;98783.28;;;25.17;31.69
16100;BME280;8154;50.830;12.082;2023-05-10T00:06:32;98781.16;;;25.19;31.63
16100;BME280;8154;50.830;12.082;2023-05-10T00:09:00;98781.16;;;25.19;31.41
16100;BME280;8154;50.830;12.082;2023-05-10T00:11:26;98777.94;;;25.17;31.67
16100;BME280;8154;50.830;12.082;2023-05-10T00:13:52;98777.09;;;25.16;31.47
16100;BME280;8154;50.830;12.082;2023-05-10T00:16:18;98777.47;;;25.20;31.70
16100;BME280;8154;50.830;12.082;2023-05-10T00:18:44;98773.97;;;25.19;31.49
16100;BME280;8154;50.830;12.082;2023-05-10T00:21:11;98774.88;;;25.13;31.73
16100;BME280;8154;50.830;12.082;2023-05-10T00:23:38;98778.16;;;25.15;31.65
16100;BME280;8154;50.830;12.082;2023-05-10T00:26:04;98773.16;;;25.19;31.64
16100;BME280;8154;50.830;12.082;2023-05-10T00:28:31;98776.03;;;25.17;31.60
16100;BME280;8154;50.830;12.082;2023-05-10T00:30:58;98766.41;;;25.16;31.51
16100;BME280;8154;50.830;12.082;2023-05-10T00:33:25;98770.13;;;25.15;31.54
16100;BME280;8154;50.830;12.082;2023-05-10T00:35:51;98758.38;;;25.16;31.60
16100;BME280;8154;50.830;12.082;2023-05-10T00:38:17;98761.88;;;25.17;31.80
16100;BME280;8154;50.830;12.082;2023-05-10T00:40:45;98758.00;;;25.13;31.57
16100;BME280;8154;50.830;12.082;2023-05-10T00:43:10;98756.38;;;25.12;31.91
16100;BME280;8154;50.830;12.082;2023-05-10T00:45:37;98752.28;;;25.09;31.53
16100;BME280;8154;50.830;12.082;2023-05-10T00:48:04;98757.03;;;25.07;31.79
16100;BME280;8154;50.830;12.082;2023-05-10T00:50:31;98753.69;;;25.12;31.97
16100;BME280;8154;50.830;12.082;2023-05-10T00:52:59;98748.94;;;25.14;31.94
16100;BME280;8154;50.830;12.082;2023-05-10T00:55:26;98740.56;;;25.10;31.67
16100;BME280;8154;50.830;12.082;2023-05-10T00:57:53;98742.63;;;25.08;31.69
16100;BME280;8154;50.830;12.082;2023-05-10T01:00:20;98739.28;;;25.13;31.71
16100;BME280;8154;50.830;12.082;2023-05-10T01:02:46;98737.22;;;25.15;31.54
16100;BME280;8154;50.830;12.082;2023-05-10T01:05:13;98731.69;;;25.10;31.55
16100;BME280;8154;50.830;12.082;2023-05-10T01:07:39;98735.66;;;25.07;31.98
16100;BME280;8154;50.830;12.082;2023-05-10T01:10:06;98734.16;;;25.11;31.95
16100;BME280;8154;50.830;12.082;2023-05-10T01:12:35;98725.91;;;25.13;31.58
16100;BME280;8154;50.830;12.082;2023-05-10T01:15:04;98721.22;;;25.08;31.76
16100;BME280;8154;50.830;12.082;2023-05-10T01:17:30;98716.09;;;25.07;31.67
16100;BME280;8154;50.830;12.082;2023-05-10T01:19:57;98726.13;;;25.11;31.78
16100;BME280;8154;50.830;12.082;2023-05-10T01:29:04;98715.44;;;25.11;31.71
16100;BME280;8154;50.830;12.082;2023-05-10T01:35:09;98717.06;;;25.12;31.62
16100;BME280;8154;50.830;12.082;2023-05-10T01:40:36;98712.03;;;25.04;31.78
16100;BME280;8154;50.830;12.082;2023-05-10T01:43:08;98708.16;;;25.00;31.77
16100;BME280;8154;50.830;12.082;2023-05-10T01:48:13;98708.09;;;25.07;31.98
16100;BME280;8154;50.830;12.082;2023-05-10T01:50:43;98710.16;;;25.05;31.82
16100;BME280;8154;50.830;12.082;2023-05-10T01:53:12;98705.03;;;25.03;31.75
16100;BME280;8154;50.830;12.082;2023-05-10T01:55:46;98709.13;;;25.06;32.06
16100;BME280;8154;50.830;12.082;2023-05-10T01:58:25;98703.13;;;25.10;31.64
16100;BME280;8154;50.830;12.082;2023-05-10T02:00:53;98701.34;;;25.04;31.95
16100;BME280;8154;50.830;12.082;2023-05-10T02:03:23;98704.47;;;25.01;32.02
16100;BME280;8154;50.830;12.082;2023-05-10T02:05:50;98701.13;;;25.06;31.72
16100;BME280;8154;50.830;12.082;2023-05-10T02:08:18;98705.19;;;25.08;31.98
16100;BME280;8154;50.830;12.082;2023-05-10T02:10:47;98703.19;;;25.04;32.01
16100;BME280;8154;50.830;12.082;2023-05-10T02:13:15;98702.59;;;25.02;31.95
16100;BME280;8154;50.830;12.082;2023-05-10T02:15:42;98700.28;;;25.05;31.85
16100;BME280;8154;50.830;12.082;2023-05-10T02:18:10;98705.63;;;25.05;31.76
16100;BME280;8154;50.830;12.082;2023-05-10T02:20:37;98708.75;;;25.02;32.05
16100;BME280;8154;50.830;12.082;2023-05-10T02:23:05;98706.53;;;24.99;32.07
16100;BME280;8154;50.830;12.082;2023-05-10T02:25:32;98704.91;;;24.98;32.01
16100;BME280;8154;50.830;12.082;2023-05-10T02:28:01;98711.50;;;24.96;31.84
16100;BME280;8154;50.830;12.082;2023-05-10T02:30:31;98708.75;;;25.02;31.83
16100;BME280;8154;50.830;12.082;2023-05-10T02:32:58;98710.16;;;25.05;31.81
16100;BME280;8154;50.830;12.082;2023-05-10T06:37:39;98780.38;;;24.76;32.49
16100;BME280;8154;50.830;12.082;2023-05-10T06:40:06;98779.38;;;24.77;32.55
16100;BME280;8154;50.830;12.082;2023-05-10T06:42:33;98775.41;;;24.79;32.48
16100;BME280;8154;50.830;12.082;2023-05-10T06:45:00;98782.84;;;24.77;32.24
16100;BME280;8154;50.830;12.082;2023-05-10T06:47:27;98785.94;;;24.74;32.46
16100;BME280;8154;50.830;12.082;2023-05-10T06:49:56;98797.47;;;24.75;32.45
16100;BME280;8154;50.830;12.082;2023-05-10T06:52:22;98794.34;;;24.78;32.35
16100;BME280;8154;50.830;12.082;2023-05-10T06:54:48;98798.88;;;24.77;32.22
16100;BME280;8154;50.830;12.082;2023-05-10T06:57:16;98808.94;;;24.75;32.42
16100;BME280;8154;50.830;12.082;2023-05-10T06:59:43;98816.38;;;24.73;32.50
16100;BME280;8154;50.830;12.082;2023-05-10T07:02:09;98808.59;;;24.72;32.67
16100;BME280;8154;50.830;12.082;2023-05-10T07:04:35;98811.03;;;24.73;32.57
16100;BME280;8154;50.830;12.082;2023-05-10T07:07:02;98805.25;;;24.76;32.69
16100;BME280;8154;50.830;12.082;2023-05-10T07:09:29;98800.13;;;24.75;32.68
16100;BME280;8154;50.830;12.082;2023-05-10T07:11:55;98813.72;;;24.73;32.59
16100;BME280;8154;50.830;12.082;2023-05-10T07:14:24;98801.97;;;24.74;32.52
16100;BME280;8154;50.830;12.082;2023-05-10T07:16:51;98805.25;;;24.76;32.42
16100;BME280;8154;50.830;12.082;2023-05-10T07:19:17;98806.28;;;24.75;32.72
16100;BME280;8154;50.830;12.082;2023-05-10T07:21:44;98818.22;;;24.73;32.69
16100;BME280;8154;50.830;12.082;2023-05-10T07:24:10;98810.44;;;24.71;32.54
16100;BME280;8154;50.830;12.082;2023-05-10T07:26:37;98812.66;;;24.74;32.37
16100;BME280;8154;50.830;12.082;2023-05-10T07:29:04;98828.47;;;24.76;32.49
16100;BME280;8154;50.830;12.082;2023-05-10T07:31:30;98820.28;;;24.71;32.39
16100;BME280;8154;50.830;12.082;2023-05-10T07:33:57;98825.84;;;24.69;32.59
16100;BME280;8154;50.830;12.082;2023-05-10T11:39:14;98938.78;;;24.58;33.02
16100;BME280;8154;50.830;12.082;2023-05-10T11:41:40;98940.00;;;24.56;33.05
16100;BME280;8154;50.830;12.082;2023-05-10T11:44:09;98935.72;;;24.55;33.01
16100;BME280;8154;50.830;12.082;2023-05-10T11:46:36;98941.22;;;24.60;33.33
16100;BME280;8154;50.830;12.082;2023-05-10T11:49:03;98941.22;;;24.60;33.32
16100;BME280;8154;50.830;12.082;2023-05-10T11:51:34;98940.00;;;24.56;33.00
16100;BME280;8154;50.830;12.082;2023-05-10T11:54:09;98944.53;;;24.55;33.38
16100;BME280;8154;50.830;12.082;2023-05-10T11:56:37;98955.38;;;24.60;33.31
16100;BME280;8154;50.830;12.082;2023-05-10T11:59:04;98954.38;;;24.61;33.01
16100;BME280;8154;50.830;12.082;2023-05-10T12:01:31;98951.53;;;24.56;33.34
16100;BME280;8154;50.830;12.082;2023-05-10T12:03:58;98950.91;;;24.54;33.33
16100;BME280;8154;50.830;12.082;2023-05-10T12:06:29;98949.47;;;24.58;32.99
16100;BME280;8154;50.830;12.082;2023-05-10T12:08:57;98957.25;;;24.60;33.22
16100;BME280;8154;50.830;12.082;2023-05-10T12:11:28;98959.75;;;24.55;33.23
16100;BME280;8154;50.830;12.082;2023-05-10T12:13:55;98958.91;;;24.54;33.15
16100;BME280;8154;50.830;12.082;2023-05-10T12:16:24;98957.88;;;24.55;33.36
16100;BME280;8154;50.830;12.082;2023-05-10T12:18:52;98956.88;;;24.56;33.34
16100;BME280;8154;50.830;12.082;2023-05-10T12:21:20;98957.88;;;24.55;33.25
16100;BME280;8154;50.830;12.082;2023-05-10T12:23:53;98959.34;;;24.51;33.30
16100;BME280;8154;50.830;12.082;2023-05-10T12:26:23;98958.53;;;24.51;33.62
16100;BME280;8154;50.830;12.082;2023-05-10T12:28:51;98963.06;;;24.50;33.28
16100;BME280;8154;50.830;12.082;2023-05-10T12:31:17;98962.41;;;24.55;33.44
16100;BME280;8154;50.830;12.082;2023-05-10T12:33:44;98964.06;;;24.56;33.12
16100;BME280;8154;50.830;12.082;2023-05-10T12:36:13;98965.31;;;24.53;33.21
16100;BME280;8154;50.830;12.082;2023-05-10T13:37:05;98996.72;;;24.58;33.15
16100;BME280;8154;50.830;12.082;2023-05-10T13:39:31;98999.19;;;24.59;33.23
16100;BME280;8154;50.830;12.082;2023-05-10T13:42:00;98995.28;;;24.55;33.52
16100;BME280;8154;50.830;12.082;2023-05-10T13:44:26;98997.38;;;24.53;33.39
16100;BME280;8154;50.830;12.082;2023-05-10T13:46:53;98988.94;;;24.56;33.15
16100;BME280;8154;50.830;12.082;2023-05-10T13:49:18;98994.25;;;24.56;33.49
16100;BME280;8154;50.830;12.082;2023-05-10T13:51:45;98994.69;;;24.53;33.38
16100;BME280;8154;50.830;12.082;2023-05-10T13:54:11;98998.38;;;24.52;33.35
16100;BME280;8154;50.830;12.082;2023-05-10T13:56:37;98997.16;;;24.55;33.27
16100;BME280;8154;50.830;12.082;2023-05-10T13:59:05;99003.06;;;24.57;33.09
16100;BME280;8154;50.830;12.082;2023-05-10T14:01:49;99000.84;;;24.54;33.33
16100;BME280;8154;50.830;12.082;2023-05-10T14:04:33;99003.72;;;24.52;33.24
16100;BME280;8154;50.830;12.082;2023-05-10T14:07:02;98999.81;;;24.55;33.42
16100;BME280;8154;50.830;12.082;2023-05-10T14:09:30;99003.28;;;24.55;33.43
16100;BME280;8154;50.830;12.082;2023-05-10T14:11:57;98999.22;;;24.53;33.49
16100;BME280;8154;50.830;12.082;2023-05-10T14:14:23;99004.56;;;24.53;33.60
16100;BME280;8154;50.830;12.082;2023-05-10T14:16:49;98995.28;;;24.55;33.25
16100;BME280;8154;50.830;12.082;2023-05-10T14:19:15;99000.84;;;24.54;33.63
16100;BME280;8154;50.830;12.082;2023-05-10T14:21:41;99003.94;;;24.51;33.50
16100;BME280;8154;50.830;12.082;2023-05-10T14:24:07;99004.16;;;24.49;33.37
16100;BME280;8154;50.830;12.082;2023-05-10T14:26:33;99000.47;;;24.50;33.25
16100;BME280;8154;50.830;12.082;2023-05-10T14:29:00;99004.75;;;24.51;33.57
16100;BME280;8154;50.830;12.082;2023-05-10T14:31:26;99004.16;;;24.49;33.38
16100;BME280;8154;50.830;12.082;2023-05-10T14:34:10;99000.91;;;24.47;33.63
16100;BME280;8154;50.830;12.082;2023-05-10T14:36:36;99001.69;;;24.48;33.25
16100;BME280;8154;50.830;12.082;2023-05-10T17:40:24;99077.13;;;24.37;42.86
16100;BME280;8154;50.830;12.082;2023-05-10T17:42:51;99074.69;;;24.35;42.94
16100;BME280;8154;50.830;12.082;2023-05-10T17:45:17;99074.69;;;24.35;42.88
16100;BME280;8154;50.830;12.082;2023-05-10T17:47:44;99072.44;;;24.32;43.34
16100;BME280;8154;50.830;12.082;2023-05-10T17:50:10;99070.38;;;24.34;42.95
16100;BME280;8154;50.830;12.082;2023-05-10T17:52:37;99069.75;;;24.32;43.22
16100;BME280;8154;50.830;12.082;2023-05-10T17:55:24;99072.22;;;24.33;42.66
16100;BME280;8154;50.830;12.082;2023-05-10T17:57:52;99072.84;;;24.36;42.51
16100;BME280;8154;50.830;12.082;2023-05-10T18:00:38;99073.66;;;24.36;42.30
16100;BME280;8154;50.830;12.082;2023-05-10T18:03:05;99069.75;;;24.32;43.12
16100;BME280;8154;50.830;12.082;2023-05-10T18:05:34;99077.34;;;24.35;42.99
16100;BME280;8154;50.830;12.082;2023-05-10T18:08:04;99077.34;;;24.35;42.53
16100;BME280;8154;50.830;12.082;2023-05-10T18:10:31;99082.28;;;24.38;42.72
16100;BME280;8154;50.830;12.082;2023-05-10T18:12:57;99074.47;;;24.37;43.20
16100;BME280;8154;50.830;12.082;2023-05-10T18:15:28;99076.75;;;24.33;43.42
16100;BME280;8154;50.830;12.082;2023-05-10T18:17:55;99081.91;;;24.35;43.09
16100;BME280;8154;50.830;12.082;2023-05-10T18:20:21;99070.38;;;24.34;43.29
16100;BME280;8154;50.830;12.082;2023-05-10T18:22:47;99080.84;;;24.36;43.40
16100;BME280;8154;50.830;12.082;2023-05-10T18:25:14;99087.25;;;24.35;43.55
16100;BME280;8154;50.830;12.082;2023-05-10T18:27:40;99083.53;;;24.36;43.45
16100;BME280;8154;50.830;12.082;2023-05-10T18:30:06;99087.25;;;24.35;43.62
16100;BME280;8154;50.830;12.082;2023-05-10T18:32:35;99086.00;;;24.30;43.55
16100;BME280;8154;50.830;12.082;2023-05-10T18:35:03;99096.69;;;24.30;44.13
16100;BME280;8154;50.830;12.082;2023-05-10T18:37:30;99092.78;;;24.33;44.17
16100;BME280;8154;50.830;12.082;2023-05-10T19:07:46;99119.09;;;24.23;44.13
16100;BME280;8154;50.830;12.082;2023-05-10T19:31:39;99127.31;;;24.21;43.52
16100;BME280;8154;50.830;12.082;2023-05-10T20:07:56;99129.97;;;24.15;43.80
16100;BME280;8154;50.830;12.082;2023-05-10T20:41:05;99143.53;;;24.13;43.17
16100;BME280;8154;50.830;12.082;2023-05-10T20:43:31;99141.28;;;24.17;42.98
16100;BME280;8154;50.830;12.082;2023-05-10T20:45:57;99133.28;;;24.17;43.10
16100;BME280;8154;50.830;12.082;2023-05-10T20:48:31;99139.66;;;24.16;43.32
16100;BME280;8154;50.830;12.082;2023-05-10T20:51:00;99126.09;;;24.17;43.17
16100;BME280;8154;50.830;12.082;2023-05-10T20:53:27;99137.38;;;24.19;42.95
16100;BME280;8154;50.830;12.082;2023-05-10T20:55:53;99137.78;;;24.16;43.32
16100;BME280;8154;50.830;12.082;2023-05-10T20:58:19;99141.91;;;24.12;43.42
16100;BME280;8154;50.830;12.082;2023-05-10T21:00:45;99146.41;;;24.12;43.30
16100;BME280;8154;50.830;12.082;2023-05-10T21:03:13;99141.69;;;24.14;42.97
16100;BME280;8154;50.830;12.082;2023-05-10T21:05:39;99145.00;;;24.16;42.85
16100;BME280;8154;50.830;12.082;2023-05-10T21:08:05;99144.78;;;24.17;43.18
16100;BME280;8154;50.830;12.082;2023-05-10T21:10:31;99147.03;;;24.20;43.06
16100;BME280;8154;50.830;12.082;2023-05-10T21:12:58;99148.09;;;24.13;43.51
16100;BME280;8154;50.830;12.082;2023-05-10T21:15:24;99142.13;;;24.11;43.49
16100;BME280;8154;50.830;12.082;2023-05-10T21:17:50;99135.16;;;24.10;43.29
16100;BME280;8154;50.830;12.082;2023-05-10T21:20:19;99141.09;;;24.12;43.49
16100;BME280;8154;50.830;12.082;2023-05-10T21:22:46;99143.75;;;24.12;43.28
16100;BME280;8154;50.830;12.082;2023-05-10T21:25:13;99139.66;;;24.09;43.48
16100;BME280;8154;50.830;12.082;2023-05-10T21:27:40;99139.25;;;24.19;43.12
16100;BME280;8154;50.830;12.082;2023-05-10T21:30:06;99141.50;;;24.22;42.84
16100;BME280;8154;50.830;12.082;2023-05-10T21:32:33;99142.31;;;24.22;42.87
16100;BME280;8154;50.830;12.082;2023-05-10T21:35:00;99150.72;;;24.26;42.76
16100;BME280;8154;50.830;12.082;2023-05-10T21:37:27;99143.75;;;24.32;42.64
16100;BME280;8154;50.830;12.082;2023-05-10T21:39:53;99152.56;;;24.32;42.28
16100;BME280;8154;50.830;12.082;2023-05-10T21:42:19;99147.84;;;24.34;42.35
16100;BME280;8154;50.830;12.082;2023-05-10T21:44:46;99147.00;;;24.33;42.32
16100;BME280;8154;50.830;12.082;2023-05-10T21:47:12;99150.50;;;24.21;42.86
16100;BME280;8154;50.830;12.082;2023-05-10T21:49:39;99146.41;;;24.12;42.82
16100;BME280;8154;50.830;12.082;2023-05-10T21:52:05;99148.88;;;24.20;42.61
16100;BME280;8154;50.830;12.082;2023-05-10T21:54:32;99152.16;;;24.28;42.66
16100;BME280;8154;50.830;12.082;2023-05-10T21:56:57;99156.25;;;24.31;42.59
16100;BME280;8154;50.830;12.082;2023-05-10T21:59:25;99157.09;;;24.32;42.45
16100;BME280;8154;50.830;12.082;2023-05-10T22:01:51;99155.66;;;24.29;42.47
16100;BME280;8154;50.830;12.082;2023-05-10T22:04:17;99150.34;;;24.22;42.64
16100;BME280;8154;50.830;12.082;2023-05-10T22:06:43;99152.19;;;24.22;42.55
16100;BME280;8154;50.830;12.082;2023-05-10T22:09:11;99150.31;;;24.29;42.58
16100;BME280;8154;50.830;12.082;2023-05-10T22:11:38;99153.19;;;24.21;42.87
16100;BME280;8154;50.830;12.082;2023-05-10T22:14:05;99156.09;;;24.13;42.57
16100;BME280;8154;50.830;12.082;2023-05-10T22:16:31;99150.13;;;24.17;42.57
16100;BME280;8154;50.830;12.082;2023-05-10T22:18:57;99153.81;;;24.23;42.07
16100;BME280;8154;50.830;12.082;2023-05-10T22:21:23;99158.31;;;24.29;42.18
16100;BME280;8154;50.830;12.082;2023-05-10T22:23:51;99157.09;;;24.32;42.19
16100;BME280;8154;50.830;12.082;2023-05-10T22:26:19;99155.25;;;24.25;41.98
16100;BME280;8154;50.830;12.082;2023-05-10T22:28:47;99149.50;;;24.15;42.20
16100;BME280;8154;50.830;12.082;2023-05-10T22:31:15;99161.59;;;24.18;41.81
16100;BME280;8154;50.830;12.082;2023-05-10T22:33:41;99150.72;;;24.26;41.96
16100;BME280;8154;50.830;12.082;2023-05-10T22:36:08;99158.53;;;24.27;41.59
16100;BME280;8154;50.830;12.082;2023-05-10T22:38:35;99156.69;;;24.15;42.11
